Latest Weather Observations for Cleve Airport

IDS60801

Issued at 7:31 pm CST Tuesday 27 September 2016 (issued every 30 minutes, with the page automatically refreshed every 10 minutes)

About weather observations | Map of weather stations | Latest weather observations for SA | Other Formats
Station Details ID: 018116 Name: CLEVE AERODROME Lat: -33.71 Lon: 136.50 Height: 175.0 m
Data from the previous 72 hours. | See also: Recent months at Cleve Airport
Date/Time
CST
Temp
°C
App
Temp
°C
Dew
Point
°C
Rel
Hum
%
Delta-T
°C
Wind Press
QNH
hPa
Press
MSL
hPa
Rain since
9am
mm
Dir  Spd
km/h
Gust
km/h
Spd
kts
Gust
kts
27/07:30pm 10.5 8.1 7.0 79 1.7 ENE 9 11 5 6 1012.6 - 0.0
27/07:00pm 10.7 7.2 7.0 78 1.8 NE 15 19 8 10 1012.6 - 0.0
27/06:30pm 11.9 8.8 7.4 74 2.2 NE 13 17 7 9 1012.7 - 0.0
27/06:00pm 13.9 10.7 8.3 69 2.8 E 15 19 8 10 1012.5 1012.4 0.0
27/05:30pm 16.2 13.2 7.9 58 4.2 E 13 26 7 14 1012.5 - 0.0
27/05:00pm 18.2 14.9 6.4 46 5.9 WSW 13 17 7 9 1012.4 - 0.0
27/04:30pm 18.7 15.4 6.2 44 6.2 SSW 13 19 7 10 1012.6 - 0.0
27/04:00pm 18.8 16.2 6.3 44 6.3 W 9 20 5 11 1012.9 - 0.0
27/03:30pm 18.4 14.8 6.9 47 5.8 W 15 20 8 11 1013.0 - 0.0
27/03:00pm 18.6 16.3 7.4 48 5.7 WNW 9 20 5 11 1013.3 1013.2 0.0
27/02:30pm 18.1 14.2 7.2 49 5.5 W 17 24 9 13 1013.6 - 0.0
27/02:00pm 18.0 15.2 7.1 49 5.5 W 11 20 6 11 1014.0 - 0.0
27/01:30pm 17.1 13.3 5.7 47 5.6 WNW 15 26 8 14 1014.6 - 0.0
27/01:00pm 16.9 13.2 6.1 49 5.3 W 15 26 8 14 1015.0 - 0.0
27/12:30pm 16.1 11.6 6.0 51 4.9 W 19 30 10 16 1015.4 - 0.0
27/12:00pm 16.2 11.7 6.3 52 4.9 WNW 19 32 10 17 1015.7 1015.7 0.0
27/11:30am 15.6 11.3 7.1 57 4.2 W 19 30 10 16 1016.1 - 0.0
27/11:00am 14.8 11.2 6.6 58 4.0 WNW 15 28 8 15 1016.3 - 0.0
27/10:30am 14.2 9.6 6.6 60 3.7 W 20 28 11 15 1016.5 - 0.0
27/10:00am 13.8 9.5 6.9 63 3.4 W 19 28 10 15 1016.7 - 0.0
27/09:30am 13.2 8.7 6.3 63 3.3 WNW 19 28 10 15 1016.9 - 0.0
27/09:00am 12.3 7.7 5.5 63 3.2 W 19 24 10 13 1016.8 1016.8 0.0
27/08:30am 11.9 8.0 7.0 72 2.4 NW 17 24 9 13 1016.8 - 0.0
27/08:00am 10.9 6.9 6.6 75 2.0 NW 17 22 9 12 1016.6 - 0.0
27/07:30am 9.9 6.3 6.8 81 1.5 NW 15 20 8 11 1016.5 - 0.0
27/07:00am 8.1 5.2 6.6 90 0.7 NNW 11 17 6 9 1016.4 - 0.0
27/06:30am 6.3 2.7 5.1 92 0.5 NNW 13 17 7 9 1016.1 - 0.0
27/06:00am 6.0 2.4 4.8 92 0.5 NNW 13 17 7 9 1015.9 1015.9 0.0
27/05:30am 6.0 2.3 4.5 90 0.7 NNW 13 15 7 8 1015.7 - 0.0
27/05:00am 6.6 3.0 4.9 89 0.7 NW 13 15 7 8 1015.5 - 0.0
27/04:30am 7.0 3.1 5.3 89 0.8 NW 15 19 8 10 1015.2 - 0.0
27/04:00am 6.8 3.2 5.1 89 0.8 NW 13 17 7 9 1015.2 - 0.0
27/03:30am 7.4 3.9 5.4 87 0.9 NW 13 17 7 9 1015.0 - 0.0
27/03:00am 8.3 4.9 6.1 86 1.0 NW 13 17 7 9 1015.1 1015.0 0.0
27/02:30am 7.8 4.8 6.1 89 0.8 NW 11 15 6 8 1015.2 - 0.0
27/02:00am 6.8 3.6 5.3 90 0.7 NW 11 13 6 7 1015.5 - 0.0
27/01:30am 7.7 4.6 5.5 86 1.0 NW 11 15 6 8 1015.7 - 0.0
27/01:00am 7.5 4.5 6.0 90 0.7 NW 11 13 6 7 1016.0 - 0.0
27/12:30am 6.1 2.4 4.4 89 0.7 NW 13 15 7 8 1016.2 - 0.0
27/12:00am 6.4 3.1 4.6 88 0.8 NW 11 15 6 8 1016.2 1016.2 0.0
 
Date/Time
CST
Temp
°C
App
Temp
°C
Dew
Point
°C
Rel
Hum
%
Delta-T
°C
Wind Press
QNH
hPa
Press
MSL
hPa
Rain since
9am
mm
Dir  Spd
km/h
Gust
km/h
Spd
kts
Gust
kts
26/11:30pm 6.7 3.1 4.9 88 0.8 WNW 13 17 7 9 1016.4 - 0.0
26/11:00pm 7.2 4.0 4.9 85 1.0 WNW 11 17 6 9 1016.6 - 0.0
26/10:30pm 7.4 3.8 5.0 85 1.1 WNW 13 17 7 9 1016.7 - 0.0
26/10:00pm 7.9 4.3 5.0 82 1.3 WNW 13 17 7 9 1016.6 - 0.0
26/09:30pm 8.0 4.0 4.8 80 1.4 W 15 19 8 10 1016.6 - 0.0
26/09:00pm 8.1 4.1 4.7 79 1.5 W 15 19 8 10 1016.3 1016.3 0.0
26/08:30pm 8.3 4.2 4.1 75 1.8 W 15 20 8 11 1016.0 - 0.0
26/08:00pm 8.6 4.8 4.0 73 2.0 W 13 19 7 10 1015.9 - 0.0
26/07:30pm 9.1 5.4 4.3 72 2.1 W 13 19 7 10 1015.5 - 0.0
26/07:00pm 9.4 5.3 4.2 70 2.3 W 15 20 8 11 1015.2 - 0.0
26/06:30pm 10.1 6.1 4.7 69 2.4 WSW 15 19 8 10 1014.7 - 0.0
26/06:00pm 11.8 7.8 5.0 63 3.1 WSW 15 20 8 11 1014.4 1014.3 0.0
26/05:30pm 13.3 7.7 3.7 52 4.4 WSW 22 30 12 16 1014.2 - 0.0
26/05:00pm 14.5 8.2 3.6 48 5.0 WSW 26 35 14 19 1013.8 - 0.0
26/04:30pm 15.2 9.4 4.6 49 5.0 WSW 24 35 13 19 1013.4 - 0.0
26/04:00pm 15.3 8.8 2.8 43 5.7 W 26 39 14 21 1012.9 - 0.0
26/03:30pm 16.1 9.9 4.5 46 5.5 W 26 39 14 21 1012.7 - 0.0
26/03:00pm 16.0 9.2 3.1 42 5.9 W 28 43 15 23 1012.8 1012.7 0.0
26/02:30pm 15.8 7.8 1.5 38 6.3 W 33 44 18 24 1012.9 - 0.0
26/02:23pm 15.9 8.9 4.3 46 5.5 W 30 48 16 26 1012.9 - 0.0
26/02:00pm 16.5 10.3 6.3 51 5.0 W 28 35 15 19 1012.8 - 0.0
26/01:30pm 16.4 9.3 5.7 49 5.2 W 32 44 17 24 1012.8 - 0.0
26/01:11pm 16.4 9.5 4.8 46 5.5 W 30 48 16 26 1013.0 - 0.0
26/01:00pm 16.4 10.0 6.8 53 4.8 W 30 41 16 22 1012.9 - 0.0
26/12:30pm 16.5 10.4 6.6 52 4.9 WSW 28 41 15 22 1013.1 - 0.0
26/12:00pm 15.9 10.6 8.6 62 3.8 W 26 35 14 19 1013.3 1013.2 0.0
26/11:30am 15.5 9.8 8.5 63 3.6 W 28 41 15 22 1013.4 - 0.0
26/11:00am 16.1 11.5 9.5 65 3.5 W 24 32 13 17 1013.5 - 0.0
26/10:30am 14.6 10.5 8.8 68 3.0 W 20 26 11 14 1013.6 - 0.0
26/10:00am 13.7 9.6 8.5 71 2.6 W 20 28 11 15 1013.6 - 0.0
26/09:30am 14.0 8.2 7.8 66 3.1 W 28 39 15 21 1013.5 - 0.0
26/09:00am 13.8 7.2 4.4 53 4.4 W 28 41 15 22 1013.3 1013.2 0.0
26/08:30am 13.9 6.8 3.4 49 4.8 WNW 30 43 16 23 1013.1 - 0.0
26/08:00am 14.0 6.9 1.6 43 5.4 WNW 28 44 15 24 1012.9 - 0.0
26/07:30am 13.6 7.0 1.9 45 5.1 NNW 26 35 14 19 1012.1 - 0.0
26/07:00am 11.3 5.5 2.3 54 3.9 NNW 22 30 12 16 1011.7 - 0.0
26/06:30am 10.0 3.5 2.6 60 3.2 NNW 26 33 14 18 1011.1 - 0.0
26/06:00am 10.1 2.5 2.7 60 3.2 NNW 32 39 17 21 1011.2 1011.2 0.0
26/05:30am 9.2 1.7 3.4 67 2.5 N 32 41 17 22 1011.0 - 0.0
26/05:00am 9.0 2.3 3.8 70 2.3 N 28 37 15 20 1011.1 - 0.0
26/04:30am 8.5 1.5 4.1 74 1.9 NNW 30 41 16 22 1011.0 - 0.0
26/04:00am 9.2 2.7 4.8 74 2.0 N 28 33 15 18 1010.8 - 0.0
26/03:30am 8.5 3.3 5.3 80 1.4 N 22 28 12 15 1011.3 - 0.0
26/03:00am 7.8 3.0 5.4 85 1.1 N 20 24 11 13 1011.6 1011.6 0.0
26/02:30am 6.9 3.3 4.9 87 0.9 NNW 13 19 7 10 1012.1 - 0.0
26/02:00am 6.7 3.0 4.5 86 1.0 N 13 15 7 8 1012.6 - 0.0
26/01:30am 6.8 2.4 5.0 88 0.8 N 17 19 9 10 1012.5 - 0.0
26/01:00am 6.3 2.9 4.1 86 0.9 N 11 13 6 7 1013.7 - 0.0
26/12:30am 6.5 3.2 4.3 86 1.0 N 11 13 6 7 1014.3 - 0.0
26/12:00am 5.9 2.6 4.4 90 0.6 N 11 13 6 7 1014.6 1014.5 0.0
 
Date/Time
CST
Temp
°C
App
Temp
°C
Dew
Point
°C
Rel
Hum
%
Delta-T
°C
Wind Press
QNH
hPa
Press
MSL
hPa
Rain since
9am
mm
Dir  Spd
km/h
Gust
km/h
Spd
kts
Gust
kts
25/11:30pm 5.2 2.2 3.9 91 0.6 NNW 9 13 5 7 1015.0 - 0.0
25/11:00pm 5.9 2.5 4.2 89 0.7 NNW 11 13 6 7 1015.2 - 0.0
25/10:30pm 6.6 3.7 4.8 88 0.8 N 9 11 5 6 1015.6 - 0.0
25/10:00pm 6.8 3.9 4.8 87 0.9 NW 9 11 5 6 1015.8 - 0.0
25/09:30pm 7.2 4.3 4.9 85 1.0 WNW 9 11 5 6 1015.8 - 0.0
25/09:00pm 7.6 5.1 4.7 82 1.3 W 7 9 4 5 1015.5 1015.5 0.0
25/08:30pm 9.0 6.3 5.7 80 1.5 WSW 9 11 5 6 1015.2 - 0.0
25/08:00pm 9.1 6.1 6.2 82 1.3 WSW 11 13 6 7 1015.1 - 0.0
25/07:30pm 9.8 6.8 6.0 77 1.8 WSW 11 15 6 8 1014.8 - 0.0
25/07:00pm 11.5 8.2 6.6 72 2.3 WSW 13 20 7 11 1014.3 - 0.0
25/06:30pm 12.2 8.9 6.5 68 2.7 W 13 17 7 9 1013.7 - 0.0
25/06:00pm 14.2 11.8 7.0 62 3.5 WSW 9 11 5 6 1013.5 1013.4 0.0
25/05:30pm 15.5 12.1 6.0 53 4.6 W 13 19 7 10 1013.4 - 0.0
25/05:00pm 14.8 11.3 5.6 54 4.4 WNW 13 20 7 11 1013.2 - 0.0
25/04:30pm 14.9 10.5 4.6 50 4.8 WNW 17 22 9 12 1013.1 - 0.0
25/04:00pm 15.2 10.7 4.3 48 5.1 WNW 17 28 9 15 1013.2 - 0.0
25/03:30pm 15.0 10.2 4.7 50 4.9 WNW 19 28 10 15 1013.2 - 0.0
25/03:00pm 14.9 10.5 4.9 51 4.7 WNW 17 22 9 12 1013.5 1013.4 0.0
25/02:30pm 14.8 10.1 5.1 52 4.6 WNW 19 32 10 17 1013.8 - 0.0
25/02:00pm 16.0 10.9 5.9 51 4.9 NW 22 32 12 17 1013.9 - 0.0
25/01:30pm 14.4 11.0 5.7 56 4.2 W 13 17 7 9 1014.3 - 0.0
25/01:00pm 15.0 11.7 6.6 57 4.1 WNW 13 22 7 12 1014.8 - 0.0
25/12:30pm 14.0 9.7 5.4 56 4.1 NW 17 24 9 13 1015.3 - 0.0
25/12:00pm 13.9 10.3 4.8 54 4.3 WNW 13 22 7 12 1015.5 1015.5 0.0
25/11:30am 14.2 10.5 6.3 59 3.8 W 15 28 8 15 1015.8 - 0.0
25/11:00am 12.4 8.3 6.2 66 3.0 WNW 17 24 9 13 1016.4 - 0.0
25/10:30am 13.4 10.9 8.0 70 2.7 W 11 22 6 12 1016.5 - 0.0
25/10:00am 12.1 9.4 7.4 73 2.3 W 11 19 6 10 1016.7 - 0.0
25/09:30am 10.7 8.5 7.8 82 1.4 WNW 9 13 5 7 1016.9 - 0.0
25/09:00am 9.9 6.0 7.3 84 1.2 W 17 22 9 12 1016.9 1016.9 13.8
25/08:30am 10.2 6.4 7.4 83 1.3 W 17 22 9 12 1016.6 - 13.8
25/08:00am 10.2 7.1 7.4 83 1.3 WNW 13 17 7 9 1016.5 - 13.8
25/07:30am 8.6 5.7 6.6 87 0.9 NNW 11 17 6 9 1016.2 - 13.8
25/07:00am 7.4 4.0 5.7 89 0.8 NW 13 19 7 10 1016.3 - 13.8
25/06:30am 6.5 2.1 5.0 90 0.7 NW 17 20 9 11 1016.2 - 13.8
25/06:00am 5.7 2.0 4.3 91 0.6 NW 13 17 7 9 1015.8 1015.8 13.8
25/05:30am 5.9 2.2 4.4 90 0.6 NW 13 17 7 9 1015.3 - 13.8
25/05:00am 6.5 2.5 5.0 90 0.7 NW 15 17 8 9 1015.0 - 13.8
25/04:30am 6.3 2.3 4.8 90 0.7 NW 15 19 8 10 1014.8 - 13.8
25/04:00am 5.4 1.2 3.9 90 0.6 NW 15 17 8 9 1014.5 - 13.8
25/03:30am 5.8 1.7 4.1 89 0.7 NW 15 19 8 10 1014.3 - 13.8
25/03:00am 5.8 1.7 4.4 91 0.6 WNW 15 17 8 9 1014.3 1014.2 13.8
25/02:30am 5.8 2.1 4.4 91 0.6 WNW 13 17 7 9 1014.2 - 13.8
25/02:00am 5.8 1.7 4.4 91 0.6 NW 15 17 8 9 1014.4 - 13.8
25/01:30am 5.9 2.2 4.5 91 0.6 WNW 13 17 7 9 1014.7 - 13.8
25/01:00am 6.1 2.0 4.6 90 0.7 WNW 15 20 8 11 1014.7 - 13.8
25/12:30am 6.1 2.0 4.4 89 0.7 NW 15 19 8 10 1014.9 - 13.8
25/12:00am 6.1 2.4 4.6 90 0.7 WNW 13 17 7 9 1014.7 1014.6 13.8
 
Date/Time
CST
Temp
°C
App
Temp
°C
Dew
Point
°C
Rel
Hum
%
Delta-T
°C
Wind Press
QNH
hPa
Press
MSL
hPa
Rain since
9am
mm
Dir  Spd
km/h
Gust
km/h
Spd
kts
Gust
kts
24/11:30pm 6.6 3.0 4.9 89 0.7 WNW 13 17 7 9 1014.8 - 13.8
24/11:00pm 6.9 3.4 5.4 90 0.7 W 13 17 7 9 1014.8 - 13.8
24/10:30pm 7.2 3.8 5.8 91 0.6 W 13 15 7 8 1014.7 - 13.8
24/10:00pm 7.3 3.6 6.2 93 0.5 W 15 19 8 10 1014.5 - 13.8
24/09:30pm 7.1 3.8 6.4 95 0.3 W 13 17 7 9 1014.6 - 13.8
24/09:00pm 7.1 3.8 6.4 95 0.3 W 13 17 7 9 1014.4 1014.3 13.8
24/08:30pm 7.9 4.9 7.5 97 0.2 W 13 19 7 10 1014.2 - 13.8
24/08:00pm 7.9 4.9 7.5 97 0.2 WSW 13 17 7 9 1013.8 - 13.6

Other Formats:

Comma delimited format used in spreadsheet applications
http://www.bom.gov.au/fwo/IDS60801/IDS60801.94662.axf

JavaScript Object Notation format (JSON) in row-major order
http://www.bom.gov.au/fwo/IDS60801/IDS60801.94662.json